No particular awareness of the weather is required.    There are no Weather-warnings


Meteo18 Weather Cam more information Meteo18 Weather Cam


Thunder radar more information blitzortung!


Rain radar more information rain snow radar


Visit our other weather sites:

Template documentation
and downloads

And another site



Weather Underground History page Text

Daily Summary for May 30, 2017 Units:  Both    English   Metric
« Previous Day
Next Day »
Daily Weekly Monthly Yearly Custom
  High: Low: Average:
Temperature: 74.5 °F /  23.6 °C 61.2 °F /  16.2 °C 66.7 °F /  19.3 °C
Dew Point: 63.7 °F /  17.6 °C 57.4 °F /  14.1 °C 60.8 °F /  16 °C
Humidity: 96 % 63 % 82 %
Wind Speed: 10 mph /  16.1 km/h - 1.9 mph /  3 km/h
Wind Gust: 12 mph /  19.3 km/h - -
Wind:- - WSW
Pressure: 30.2 in /  1021.9 hPa 30 in /  1016.5 hPa -
Precipitation: 0.21 in /  5.3 mm    
Historical Graphs
 
 
Tabular Data for May 30, 2017
Time Temperature Dew Point Pressure Wind Wind Speed Wind Gust Humidity Rainfall Rate (Hourly)
00:02 66.7 °F /  19.3 °C 57.7 °F /  14.3 °C 30 in /  1017.2 hPa Calm     73 % 0 in /  0.0 mm
00:12 66.7 °F /  19.3 °C 58.1 °F /  14.5 °C 30 in /  1017.2 hPa Calm     74 % 0 in /  0.0 mm
00:17 66.7 °F /  19.3 °C 58.6 °F /  14.8 °C 30 in /  1017.2 hPa WNW 1 mph /  1.6 km/h   75 % 0 in /  0.0 mm
00:22 66.6 °F /  19.2 °C 58.5 °F /  14.7 °C 30 in /  1016.8 hPa Calm     75 % 0 in /  0.0 mm
00:32 66.6 °F /  19.2 °C 58.8 °F /  14.9 °C 30 in /  1016.8 hPa Calm   2 mph /  3.2 km/h 76 % 0 in /  0.0 mm
00:42 66.7 °F /  19.3 °C 59 °F /  15.0 °C 30 in /  1017.2 hPa Calm   2 mph /  3.2 km/h 76 % 0 in /  0.0 mm
00:52 66.6 °F /  19.2 °C 59.2 °F /  15.1 °C 30 in /  1016.8 hPa Calm   2 mph /  3.2 km/h 77 % 0 in /  0.0 mm
00:57 66.6 °F /  19.2 °C 59.2 °F /  15.1 °C 30 in /  1017.2 hPa Calm   3 mph /  4.8 km/h 77 % 0 in /  0.0 mm
01:02 66.4 °F /  19.1 °C 59 °F /  15.0 °C 30 in /  1017.2 hPa Calm   4 mph /  6.4 km/h 77 % 0 in /  0.0 mm
01:07 66.2 °F /  19.0 °C 59.2 °F /  15.1 °C 30 in /  1016.8 hPa Calm   4 mph /  6.4 km/h 78 % 0 in /  0.0 mm
01:12 66 °F /  18.9 °C 59 °F /  15.0 °C 30 in /  1016.8 hPa Calm   4 mph /  6.4 km/h 78 % 0 in /  0.0 mm
01:17 65.8 °F /  18.8 °C 58.8 °F /  14.9 °C 30 in /  1016.8 hPa Calm   1 mph /  1.6 km/h 78 % 0 in /  0.0 mm
01:22 65.8 °F /  18.8 °C 58.8 °F /  14.9 °C 30 in /  1016.8 hPa Calm     78 % 0 in /  0.0 mm
01:27 65.8 °F /  18.8 °C 59.2 °F /  15.1 °C 30 in /  1016.8 hPa Calm     79 % 0 in /  0.0 mm
01:32 65.5 °F /  18.6 °C 59.2 °F /  15.1 °C 30 in /  1016.8 hPa WNW 1 mph /  1.6 km/h 1 mph /  1.6 km/h 80 % 0 in /  0.0 mm
01:37 64.9 °F /  18.3 °C 59 °F /  15.0 °C 30 in /  1016.8 hPa WNW 1 mph /  1.6 km/h 1 mph /  1.6 km/h 81 % 0 in /  0.0 mm
01:42 64.6 °F /  18.1 °C 59 °F /  15.0 °C 30 in /  1016.8 hPa West 1 mph /  1.6 km/h 3 mph /  4.8 km/h 82 % 0 in /  0.0 mm
01:52 64.9 °F /  18.3 °C 59.4 °F /  15.2 °C 30 in /  1016.8 hPa Calm   3 mph /  4.8 km/h 82 % 0 in /  0.0 mm
01:57 64.9 °F /  18.3 °C 59.4 °F /  15.2 °C 30 in /  1016.5 hPa Calm   3 mph /  4.8 km/h 82 % 0 in /  0.0 mm
02:02 64.9 °F /  18.3 °C 59 °F /  15.0 °C 30 in /  1016.5 hPa Calm   3 mph /  4.8 km/h 81 % 0 in /  0.0 mm
02:07 64.8 °F /  18.2 °C 59.2 °F /  15.1 °C 30 in /  1016.5 hPa Calm   2 mph /  3.2 km/h 82 % 0 in /  0.0 mm
02:17 64.2 °F /  17.9 °C 59 °F /  15.0 °C 30 in /  1016.5 hPa West 1 mph /  1.6 km/h 1 mph /  1.6 km/h 83 % 0 in /  0.0 mm
02:22 64.6 °F /  18.1 °C 59 °F /  15.0 °C 30 in /  1016.5 hPa Calm     82 % 0 in /  0.0 mm
02:32 64.2 °F /  17.9 °C 59 °F /  15.0 °C 30 in /  1016.5 hPa West 1 mph /  1.6 km/h 3 mph /  4.8 km/h 83 % 0 in /  0.0 mm
02:42 64.6 °F /  18.1 °C 59 °F /  15.0 °C 30 in /  1016.5 hPa Calm   3 mph /  4.8 km/h 82 % 0 in /  0.0 mm
02:47 64.6 °F /  18.1 °C 59.4 °F /  15.2 °C 30 in /  1016.5 hPa Calm   2 mph /  3.2 km/h 83 % 0 in /  0.0 mm
02:52 64.2 °F /  17.9 °C 59 °F /  15.0 °C 30 in /  1016.5 hPa Calm   1 mph /  1.6 km/h 83 % 0 in /  0.0 mm
02:57 64 °F /  17.8 °C 59.2 °F /  15.1 °C 30 in /  1016.5 hPa SE 1 mph /  1.6 km/h 1 mph /  1.6 km/h 84 % 0 in /  0.0 mm
03:02 63.9 °F /  17.7 °C 59 °F /  15.0 °C 30 in /  1016.5 hPa SE 1 mph /  1.6 km/h 2 mph /  3.2 km/h 84 % 0 in /  0.0 mm
03:12 64 °F /  17.8 °C 59.4 °F /  15.2 °C 30 in /  1016.5 hPa Calm   2 mph /  3.2 km/h 85 % 0 in /  0.0 mm
03:17 64 °F /  17.8 °C 59.4 °F /  15.2 °C 30 in /  1016.5 hPa SW 2 mph /  3.2 km/h 2 mph /  3.2 km/h 85 % 0 in /  0.0 mm
03:22 63.9 °F /  17.7 °C 59.2 °F /  15.1 °C 30 in /  1017.2 hPa SSW 3 mph /  4.8 km/h 3 mph /  4.8 km/h 85 % 0 in /  0.0 mm
03:32 64.4 °F /  18.0 °C 59.5 °F /  15.3 °C 30 in /  1016.8 hPa SW 3 mph /  4.8 km/h 7 mph /  11.3 km/h 84 % 0 in /  0.0 mm
03:42 64.6 °F /  18.1 °C 59.9 °F /  15.5 °C 30 in /  1016.5 hPa WNW 3 mph /  4.8 km/h 7 mph /  11.3 km/h 85 % 0 in /  0.0 mm
03:47 64.2 °F /  17.9 °C 59.9 °F /  15.5 °C 30 in /  1016.8 hPa WSW 3 mph /  4.8 km/h 6 mph /  9.7 km/h 86 % 0 in /  0.0 mm
03:52 63.9 °F /  17.7 °C 59.9 °F /  15.5 °C 30 in /  1016.8 hPa West 2 mph /  3.2 km/h 6 mph /  9.7 km/h 87 % 0 in /  0.0 mm
03:57 63.5 °F /  17.5 °C 59.9 °F /  15.5 °C 30 in /  1016.8 hPa WSW 4 mph /  6.4 km/h 6 mph /  9.7 km/h 88 % 0 in /  0.0 mm
04:02 63.3 °F /  17.4 °C 60.1 °F /  15.6 °C 30 in /  1016.8 hPa West 1 mph /  1.6 km/h 6 mph /  9.7 km/h 89 % 0 in /  0.0 mm
04:07 63.3 °F /  17.4 °C 60.1 °F /  15.6 °C 30 in /  1016.5 hPa West 1 mph /  1.6 km/h 5 mph /  8.0 km/h 89 % 0.01 in /  0.3 mm
04:12 63.3 °F /  17.4 °C 60.1 °F /  15.6 °C 30 in /  1016.5 hPa West 1 mph /  1.6 km/h 5 mph /  8.0 km/h 89 % 0.01 in /  0.3 mm
04:17 63.1 °F /  17.3 °C 59.9 °F /  15.5 °C 30 in /  1016.8 hPa NW 1 mph /  1.6 km/h 5 mph /  8.0 km/h 89 % 0.01 in /  0.3 mm
04:22 63.1 °F /  17.3 °C 60.1 °F /  15.6 °C 30 in /  1016.8 hPa West 2 mph /  3.2 km/h 5 mph /  8.0 km/h 90 % 0.01 in /  0.3 mm
04:32 63 °F /  17.2 °C 60.3 °F /  15.7 °C 30 in /  1016.8 hPa SW 1 mph /  1.6 km/h 6 mph /  9.7 km/h 91 % 0.01 in /  0.3 mm
04:42 63 °F /  17.2 °C 60.3 °F /  15.7 °C 30 in /  1016.8 hPa NW 3 mph /  4.8 km/h 5 mph /  8.0 km/h 91 % 0.01 in /  0.3 mm
04:47 63 °F /  17.2 °C 60.3 °F /  15.7 °C 30 in /  1016.8 hPa Calm   5 mph /  8.0 km/h 91 % 0.01 in /  0.3 mm
04:52 62.8 °F /  17.1 °C 60.4 °F /  15.8 °C 30 in /  1017.2 hPa SSW 2 mph /  3.2 km/h 5 mph /  8.0 km/h 92 % 0.01 in /  0.3 mm
04:57 62.8 °F /  17.1 °C 60.4 °F /  15.8 °C 30 in /  1016.8 hPa WNW 1 mph /  1.6 km/h 5 mph /  8.0 km/h 92 % 0.01 in /  0.3 mm
05:02 62.6 °F /  17.0 °C 60.3 °F /  15.7 °C 30 in /  1016.5 hPa WSW 1 mph /  1.6 km/h 4 mph /  6.4 km/h 92 % 0.05 in /  1.3 mm
05:12 62.4 °F /  16.9 °C 60.4 °F /  15.8 °C 30 in /  1016.5 hPa Calm   3 mph /  4.8 km/h 93 % 0.06 in /  1.5 mm
05:17 62.4 °F /  16.9 °C 60.4 °F /  15.8 °C 30 in /  1016.8 hPa Calm   3 mph /  4.8 km/h 93 % 0.06 in /  1.5 mm
05:22 62.2 °F /  16.8 °C 60.3 °F /  15.7 °C 30 in /  1016.8 hPa Calm   2 mph /  3.2 km/h 93 % 0.06 in /  1.5 mm
05:32 62.2 °F /  16.8 °C 60.4 °F /  15.8 °C 30.1 in /  1017.5 hPa Calm   2 mph /  3.2 km/h 94 % 0.07 in /  1.8 mm
05:42 62.1 °F /  16.7 °C 60.3 °F /  15.7 °C 30.1 in /  1017.5 hPa WSW 2 mph /  3.2 km/h 2 mph /  3.2 km/h 94 % 0.08 in /  2.0 mm
05:52 61.7 °F /  16.5 °C 59.9 °F /  15.5 °C 30 in /  1017.2 hPa South 1 mph /  1.6 km/h 3 mph /  4.8 km/h 94 % 0.09 in /  2.3 mm
06:02 61.7 °F /  16.5 °C 59.9 °F /  15.5 °C 30 in /  1017.2 hPa Calm   3 mph /  4.8 km/h 94 % 0.09 in /  2.3 mm
06:12 61.5 °F /  16.4 °C 60.1 °F /  15.6 °C 30 in /  1017.2 hPa Calm   2 mph /  3.2 km/h 95 % 0.09 in /  2.3 mm
06:17 61.5 °F /  16.4 °C 59.7 °F /  15.4 °C 30 in /  1017.2 hPa Calm   2 mph /  3.2 km/h 94 % 0.09 in /  2.3 mm
06:22 61.3 °F /  16.3 °C 59.9 °F /  15.5 °C 30.1 in /  1017.5 hPa SSE 2 mph /  3.2 km/h   95 % 0.11 in /  2.8 mm
06:32 61.3 °F /  16.3 °C 59.9 °F /  15.5 °C 30 in /  1017.2 hPa SW 1 mph /  1.6 km/h   95 % 0.11 in /  2.8 mm
06:37 61.3 °F /  16.3 °C 59.9 °F /  15.5 °C 30 in /  1017.2 hPa Calm   4 mph /  6.4 km/h 95 % 0.13 in /  3.3 mm
06:42 61.2 °F /  16.2 °C 59.7 °F /  15.4 °C 30 in /  1017.2 hPa Calm   4 mph /  6.4 km/h 95 % 0.13 in /  3.3 mm
06:47 61.2 °F /  16.2 °C 59.7 °F /  15.4 °C 30 in /  1017.2 hPa South 1 mph /  1.6 km/h 4 mph /  6.4 km/h 95 % 0.13 in /  3.3 mm
06:52 61.2 °F /  16.2 °C 59.7 °F /  15.4 °C 30.1 in /  1017.5 hPa SSW 1 mph /  1.6 km/h 2 mph /  3.2 km/h 95 % 0.08 in /  2.0 mm
07:02 61.3 °F /  16.3 °C 60.3 °F /  15.7 °C 30.1 in /  1017.5 hPa Calm   2 mph /  3.2 km/h 96 % 0.08 in /  2.0 mm
07:12 61.3 °F /  16.3 °C 60.3 °F /  15.7 °C 30.1 in /  1017.5 hPa Calm   2 mph /  3.2 km/h 96 % 0.05 in /  1.3 mm
07:17 61.3 °F /  16.3 °C 60.3 °F /  15.7 °C 30.1 in /  1017.5 hPa Calm   2 mph /  3.2 km/h 96 % 0.05 in /  1.3 mm
07:22 61.3 °F /  16.3 °C 60.3 °F /  15.7 °C 30.1 in /  1017.5 hPa Calm   2 mph /  3.2 km/h 96 % 0.02 in /  0.5 mm
07:32 61.3 °F /  16.3 °C 60.3 °F /  15.7 °C 30.1 in /  1017.5 hPa Calm   2 mph /  3.2 km/h 96 % 0.01 in /  0.3 mm
07:42 61.3 °F /  16.3 °C 60.3 °F /  15.7 °C 30.1 in /  1017.5 hPa SW 1 mph /  1.6 km/h 1 mph /  1.6 km/h 96 % 0 in /  0.0 mm
07:52 61.5 °F /  16.4 °C 60.4 °F /  15.8 °C 30.1 in /  1017.8 hPa WSW 2 mph /  3.2 km/h 2 mph /  3.2 km/h 96 % 0 in /  0.0 mm
07:57 61.3 °F /  16.3 °C 60.3 °F /  15.7 °C 30.1 in /  1017.8 hPa SW 2 mph /  3.2 km/h 2 mph /  3.2 km/h 96 % 0 in /  0.0 mm
08:02 61.5 °F /  16.4 °C 60.4 °F /  15.8 °C 30.1 in /  1017.8 hPa SW 4 mph /  6.4 km/h 6 mph /  9.7 km/h 96 % 0 in /  0.0 mm
08:07 61.5 °F /  16.4 °C 60.4 °F /  15.8 °C 30.1 in /  1018.2 hPa SSW 4 mph /  6.4 km/h 6 mph /  9.7 km/h 96 % 0 in /  0.0 mm
08:12 61.7 °F /  16.5 °C 60.6 °F /  15.9 °C 30.1 in /  1018.2 hPa SW 3 mph /  4.8 km/h 6 mph /  9.7 km/h 96 % 0 in /  0.0 mm
08:17 61.7 °F /  16.5 °C 60.6 °F /  15.9 °C 30.1 in /  1018.2 hPa Calm   6 mph /  9.7 km/h 96 % 0 in /  0.0 mm
08:22 61.9 °F /  16.6 °C 60.8 °F /  16.0 °C 30.1 in /  1017.8 hPa Calm   5 mph /  8.0 km/h 96 % 0 in /  0.0 mm
08:27 61.9 °F /  16.6 °C 60.8 °F /  16.0 °C 30.1 in /  1017.8 hPa SSW 1 mph /  1.6 km/h 5 mph /  8.0 km/h 96 % 0 in /  0.0 mm
08:32 61.9 °F /  16.6 °C 60.8 °F /  16.0 °C 30.1 in /  1018.2 hPa SW 2 mph /  3.2 km/h 4 mph /  6.4 km/h 96 % 0 in /  0.0 mm
08:42 62.1 °F /  16.7 °C 61 °F /  16.1 °C 30.1 in /  1018.5 hPa SW 1 mph /  1.6 km/h 4 mph /  6.4 km/h 96 % 0 in /  0.0 mm
08:47 62.1 °F /  16.7 °C 61 °F /  16.1 °C 30.1 in /  1018.5 hPa SSW 2 mph /  3.2 km/h 4 mph /  6.4 km/h 96 % 0 in /  0.0 mm
08:52 62.1 °F /  16.7 °C 61 °F /  16.1 °C 30.1 in /  1018.5 hPa WSW 2 mph /  3.2 km/h 4 mph /  6.4 km/h 96 % 0 in /  0.0 mm
08:57 62.1 °F /  16.7 °C 61 °F /  16.1 °C 30.1 in /  1018.5 hPa WSW 3 mph /  4.8 km/h 4 mph /  6.4 km/h 96 % 0 in /  0.0 mm
09:02 62.1 °F /  16.7 °C 61 °F /  16.1 °C 30.1 in /  1018.8 hPa SW 2 mph /  3.2 km/h 5 mph /  8.0 km/h 96 % 0 in /  0.0 mm
09:12 62.2 °F /  16.8 °C 61.2 °F /  16.2 °C 30.1 in /  1018.8 hPa SW 2 mph /  3.2 km/h 5 mph /  8.0 km/h 96 % 0.01 in /  0.3 mm
09:17 62.4 °F /  16.9 °C 61 °F /  16.1 °C 30.1 in /  1018.8 hPa SSW 1 mph /  1.6 km/h 5 mph /  8.0 km/h 95 % 0.01 in /  0.3 mm
09:22 62.2 °F /  16.8 °C 60.8 °F /  16.0 °C 30.1 in /  1018.8 hPa West 1 mph /  1.6 km/h 5 mph /  8.0 km/h 95 % 0.01 in /  0.3 mm
09:32 62.4 °F /  16.9 °C 61 °F /  16.1 °C 30.1 in /  1018.8 hPa Calm   4 mph /  6.4 km/h 95 % 0.01 in /  0.3 mm
09:37 62.8 °F /  17.1 °C 61.3 °F /  16.3 °C 30.1 in /  1018.8 hPa Calm   4 mph /  6.4 km/h 95 % 0.01 in /  0.3 mm
09:42 63.1 °F /  17.3 °C 61.7 °F /  16.5 °C 30.1 in /  1018.8 hPa Calm   4 mph /  6.4 km/h 95 % 0.01 in /  0.3 mm
09:47 63.1 °F /  17.3 °C 61.3 °F /  16.3 °C 30.1 in /  1018.8 hPa Calm   4 mph /  6.4 km/h 94 % 0.01 in /  0.3 mm
09:52 63.5 °F /  17.5 °C 61.7 °F /  16.5 °C 30.1 in /  1018.8 hPa WSW 4 mph /  6.4 km/h 4 mph /  6.4 km/h 94 % 0.01 in /  0.3 mm
09:57 63.5 °F /  17.5 °C 61.5 °F /  16.4 °C 30.1 in /  1018.8 hPa SW 3 mph /  4.8 km/h 3 mph /  4.8 km/h 93 % 0.01 in /  0.3 mm
10:02 63.9 °F /  17.7 °C 61.9 °F /  16.6 °C 30.1 in /  1018.8 hPa SW 4 mph /  6.4 km/h 6 mph /  9.7 km/h 93 % 0.01 in /  0.3 mm
10:12 64.2 °F /  17.9 °C 62.2 °F /  16.8 °C 30.1 in /  1018.8 hPa SSW 2 mph /  3.2 km/h 6 mph /  9.7 km/h 93 % 0 in /  0.0 mm
10:17 64.6 °F /  18.1 °C 62.2 °F /  16.8 °C 30.1 in /  1018.8 hPa South 3 mph /  4.8 km/h 6 mph /  9.7 km/h 92 % 0 in /  0.0 mm
10:22 64.8 °F /  18.2 °C 62.4 °F /  16.9 °C 30.1 in /  1018.8 hPa WSW 2 mph /  3.2 km/h 6 mph /  9.7 km/h 92 % 0 in /  0.0 mm
10:32 65.5 °F /  18.6 °C 63.1 °F /  17.3 °C 30.1 in /  1018.8 hPa SSW 1 mph /  1.6 km/h 5 mph /  8.0 km/h 92 % 0 in /  0.0 mm
10:42 66 °F /  18.9 °C 62.4 °F /  16.9 °C 30.1 in /  1018.8 hPa SW 3 mph /  4.8 km/h 5 mph /  8.0 km/h 88 % 0 in /  0.0 mm
10:52 65.8 °F /  18.8 °C 62.4 °F /  16.9 °C 30.1 in /  1018.8 hPa WSW 3 mph /  4.8 km/h 7 mph /  11.3 km/h 89 % 0 in /  0.0 mm
10:57 66 °F /  18.9 °C 63 °F /  17.2 °C 30.1 in /  1018.8 hPa West 1 mph /  1.6 km/h 7 mph /  11.3 km/h 90 % 0 in /  0.0 mm
11:02 66 °F /  18.9 °C 62.4 °F /  16.9 °C 30.1 in /  1019.2 hPa WSW 1 mph /  1.6 km/h 7 mph /  11.3 km/h 88 % 0 in /  0.0 mm
11:07 66.4 °F /  19.1 °C 63 °F /  17.2 °C 30.1 in /  1018.8 hPa WSW 1 mph /  1.6 km/h 7 mph /  11.3 km/h 89 % 0 in /  0.0 mm
11:12 66.6 °F /  19.2 °C 62.6 °F /  17.0 °C 30.1 in /  1018.8 hPa West 1 mph /  1.6 km/h 4 mph /  6.4 km/h 87 % 0 in /  0.0 mm
11:22 66.6 °F /  19.2 °C 62.2 °F /  16.8 °C 30.1 in /  1019.2 hPa SW 3 mph /  4.8 km/h 5 mph /  8.0 km/h 86 % 0 in /  0.0 mm
11:32 66.7 °F /  19.3 °C 62.8 °F /  17.1 °C 30.1 in /  1019.2 hPa SW 1 mph /  1.6 km/h 7 mph /  11.3 km/h 87 % 0 in /  0.0 mm
11:42 66.6 °F /  19.2 °C 61.9 °F /  16.6 °C 30.1 in /  1019.2 hPa SW 3 mph /  4.8 km/h 7 mph /  11.3 km/h 85 % 0 in /  0.0 mm
11:47 66.6 °F /  19.2 °C 61.5 °F /  16.4 °C 30.1 in /  1019.2 hPa SW 4 mph /  6.4 km/h 7 mph /  11.3 km/h 84 % 0 in /  0.0 mm
11:52 66.7 °F /  19.3 °C 62.4 °F /  16.9 °C 30.1 in /  1019.2 hPa SW 1 mph /  1.6 km/h 8 mph /  12.9 km/h 86 % 0 in /  0.0 mm
11:57 66.7 °F /  19.3 °C 62.4 °F /  16.9 °C 30.1 in /  1019.2 hPa SW 3 mph /  4.8 km/h 8 mph /  12.9 km/h 86 % 0 in /  0.0 mm
12:02 66.6 °F /  19.2 °C 61.9 °F /  16.6 °C 30.1 in /  1019.2 hPa South 2 mph /  3.2 km/h 7 mph /  11.3 km/h 85 % 0 in /  0.0 mm
12:12 66.6 °F /  19.2 °C 62.2 °F /  16.8 °C 30.1 in /  1019.2 hPa SW 4 mph /  6.4 km/h 6 mph /  9.7 km/h 86 % 0 in /  0.0 mm
12:17 66.7 °F /  19.3 °C 62.8 °F /  17.1 °C 30.1 in /  1019.2 hPa WSW 1 mph /  1.6 km/h 6 mph /  9.7 km/h 87 % 0 in /  0.0 mm
12:22 67.3 °F /  19.6 °C 62.2 °F /  16.8 °C 30.1 in /  1019.2 hPa WNW 4 mph /  6.4 km/h 6 mph /  9.7 km/h 84 % 0 in /  0.0 mm
12:32 68.5 °F /  20.3 °C 62.8 °F /  17.1 °C 30.1 in /  1019.2 hPa WNW 4 mph /  6.4 km/h 6 mph /  9.7 km/h 82 % 0 in /  0.0 mm
12:37 69.1 °F /  20.6 °C 63.3 °F /  17.4 °C 30.1 in /  1019.5 hPa SSW 3 mph /  4.8 km/h 6 mph /  9.7 km/h 82 % 0 in /  0.0 mm
12:42 69.1 °F /  20.6 °C 61.9 °F /  16.6 °C 30.1 in /  1019.5 hPa West 7 mph /  11.3 km/h 7 mph /  11.3 km/h 78 % 0 in /  0.0 mm
12:47 69.1 °F /  20.6 °C 61.9 °F /  16.6 °C 30.1 in /  1019.5 hPa WSW 3 mph /  4.8 km/h 6 mph /  9.7 km/h 78 % 0 in /  0.0 mm
12:52 69.3 °F /  20.7 °C 63.1 °F /  17.3 °C 30.1 in /  1019.5 hPa WNW 3 mph /  4.8 km/h 7 mph /  11.3 km/h 81 % 0 in /  0.0 mm
13:02 68.7 °F /  20.4 °C 62.6 °F /  17.0 °C 30.1 in /  1019.5 hPa WNW 6 mph /  9.7 km/h 7 mph /  11.3 km/h 81 % 0 in /  0.0 mm
13:12 68 °F /  20.0 °C 62.6 °F /  17.0 °C 30.1 in /  1019.5 hPa WSW 2 mph /  3.2 km/h 9 mph /  14.5 km/h 83 % 0 in /  0.0 mm
13:17 67.8 °F /  19.9 °C 62.1 °F /  16.7 °C 30.1 in /  1019.5 hPa West 4 mph /  6.4 km/h 9 mph /  14.5 km/h 82 % 0 in /  0.0 mm
13:22 68 °F /  20.0 °C 61.5 °F /  16.4 °C 30.1 in /  1019.5 hPa West 4 mph /  6.4 km/h 8 mph /  12.9 km/h 80 % 0 in /  0.0 mm
13:32 68.4 °F /  20.2 °C 62.2 °F /  16.8 °C 30.1 in /  1019.5 hPa WNW 5 mph /  8.0 km/h 9 mph /  14.5 km/h 81 % 0 in /  0.0 mm
13:42 69.1 °F /  20.6 °C 62.2 °F /  16.8 °C 30.1 in /  1019.2 hPa WNW 3 mph /  4.8 km/h 8 mph /  12.9 km/h 79 % 0 in /  0.0 mm
13:52 69.4 °F /  20.8 °C 61.5 °F /  16.4 °C 30.1 in /  1019.2 hPa SW 2 mph /  3.2 km/h 8 mph /  12.9 km/h 76 % 0 in /  0.0 mm
14:02 70.7 °F /  21.5 °C 61.7 °F /  16.5 °C 30.1 in /  1019.2 hPa West 4 mph /  6.4 km/h 8 mph /  12.9 km/h 73 % 0 in /  0.0 mm
14:07 70.9 °F /  21.6 °C 62.6 °F /  17.0 °C 30.1 in /  1019.2 hPa WNW 1 mph /  1.6 km/h 8 mph /  12.9 km/h 75 % 0 in /  0.0 mm
14:12 71.2 °F /  21.8 °C 61 °F /  16.1 °C 30.1 in /  1019.2 hPa SW 4 mph /  6.4 km/h 7 mph /  11.3 km/h 70 % 0 in /  0.0 mm
14:17 71.6 °F /  22.0 °C 62.1 °F /  16.7 °C 30.1 in /  1019.2 hPa SSW 2 mph /  3.2 km/h 7 mph /  11.3 km/h 72 % 0 in /  0.0 mm
14:22 72.1 °F /  22.3 °C 62.2 °F /  16.8 °C 30.1 in /  1019.2 hPa West 5 mph /  8.0 km/h 7 mph /  11.3 km/h 71 % 0 in /  0.0 mm
14:27 72 °F /  22.2 °C 62.8 °F /  17.1 °C 30.1 in /  1018.8 hPa West 1 mph /  1.6 km/h 8 mph /  12.9 km/h 73 % 0 in /  0.0 mm
14:32 72 °F /  22.2 °C 62.8 °F /  17.1 °C 30.1 in /  1018.8 hPa SW 3 mph /  4.8 km/h 8 mph /  12.9 km/h 73 % 0 in /  0.0 mm
14:42 72.1 °F /  22.3 °C 62.6 °F /  17.0 °C 30.1 in /  1018.8 hPa West 6 mph /  9.7 km/h 8 mph /  12.9 km/h 72 % 0 in /  0.0 mm
14:47 72.3 °F /  22.4 °C 62.1 °F /  16.7 °C 30.1 in /  1018.8 hPa West 3 mph /  4.8 km/h 9 mph /  14.5 km/h 70 % 0 in /  0.0 mm
14:52 72.3 °F /  22.4 °C 61.5 °F /  16.4 °C 30.1 in /  1018.8 hPa South 3 mph /  4.8 km/h 9 mph /  14.5 km/h 69 % 0 in /  0.0 mm
15:02 73 °F /  22.8 °C 61.9 °F /  16.6 °C 30.1 in /  1018.8 hPa WNW 4 mph /  6.4 km/h 10 mph /  16.1 km/h 68 % 0 in /  0.0 mm
15:07 73.2 °F /  22.9 °C 62.4 °F /  16.9 °C 30.1 in /  1018.8 hPa WNW 3 mph /  4.8 km/h 10 mph /  16.1 km/h 69 % 0 in /  0.0 mm
15:17 73.2 °F /  22.9 °C 63.3 °F /  17.4 °C 30.1 in /  1018.8 hPa West 5 mph /  8.0 km/h 11 mph /  17.7 km/h 71 % 0 in /  0.0 mm
15:22 73.2 °F /  22.9 °C 63.7 °F /  17.6 °C 30.1 in /  1018.8 hPa WSW 5 mph /  8.0 km/h 11 mph /  17.7 km/h 72 % 0 in /  0.0 mm
15:32 73 °F /  22.8 °C 62.2 °F /  16.8 °C 30.1 in /  1018.8 hPa WSW 5 mph /  8.0 km/h 9 mph /  14.5 km/h 69 % 0 in /  0.0 mm
15:37 72.7 °F /  22.6 °C 61.9 °F /  16.6 °C 30.1 in /  1018.8 hPa SW 3 mph /  4.8 km/h 12 mph /  19.3 km/h 69 % 0 in /  0.0 mm
15:42 72.5 °F /  22.5 °C 61.3 °F /  16.3 °C 30.1 in /  1018.8 hPa West 3 mph /  4.8 km/h 12 mph /  19.3 km/h 68 % 0 in /  0.0 mm
15:47 72.5 °F /  22.5 °C 62.6 °F /  17.0 °C 30.1 in /  1018.8 hPa WNW 7 mph /  11.3 km/h 12 mph /  19.3 km/h 71 % 0 in /  0.0 mm
15:52 72.1 °F /  22.3 °C 62.6 °F /  17.0 °C 30.1 in /  1018.8 hPa NNW 3 mph /  4.8 km/h 12 mph /  19.3 km/h 72 % 0 in /  0.0 mm
15:57 72 °F /  22.2 °C 62.4 °F /  16.9 °C 30.1 in /  1018.8 hPa SSW 4 mph /  6.4 km/h 8 mph /  12.9 km/h 72 % 0 in /  0.0 mm
16:02 72.1 °F /  22.3 °C 62.2 °F /  16.8 °C 30.1 in /  1018.8 hPa NNW 2 mph /  3.2 km/h 9 mph /  14.5 km/h 71 % 0 in /  0.0 mm
16:12 72.9 °F /  22.7 °C 63.3 °F /  17.4 °C 30.1 in /  1018.8 hPa WSW 3 mph /  4.8 km/h 9 mph /  14.5 km/h 72 % 0 in /  0.0 mm
16:17 72.7 °F /  22.6 °C 62.8 °F /  17.1 °C 30.1 in /  1018.8 hPa Calm   7 mph /  11.3 km/h 71 % 0 in /  0.0 mm
16:22 73 °F /  22.8 °C 62.2 °F /  16.8 °C 30.1 in /  1018.8 hPa WNW 2 mph /  3.2 km/h 7 mph /  11.3 km/h 69 % 0 in /  0.0 mm
16:27 72.7 °F /  22.6 °C 61.5 °F /  16.4 °C 30.1 in /  1018.8 hPa WNW 4 mph /  6.4 km/h 7 mph /  11.3 km/h 68 % 0 in /  0.0 mm
16:32 72.3 °F /  22.4 °C 62.1 °F /  16.7 °C 30.1 in /  1018.8 hPa West 3 mph /  4.8 km/h 6 mph /  9.7 km/h 70 % 0 in /  0.0 mm
16:42 72.3 °F /  22.4 °C 61.5 °F /  16.4 °C 30.1 in /  1018.8 hPa WNW 1 mph /  1.6 km/h 6 mph /  9.7 km/h 69 % 0 in /  0.0 mm
16:47 72.7 °F /  22.6 °C 61.9 °F /  16.6 °C 30.1 in /  1018.8 hPa NW 3 mph /  4.8 km/h 5 mph /  8.0 km/h 69 % 0 in /  0.0 mm
16:52 73 °F /  22.8 °C 62.2 °F /  16.8 °C 30.1 in /  1018.8 hPa Calm   5 mph /  8.0 km/h 69 % 0 in /  0.0 mm
16:57 74.1 °F /  23.4 °C 62.1 °F /  16.7 °C 30.1 in /  1018.5 hPa WSW 6 mph /  9.7 km/h 6 mph /  9.7 km/h 66 % 0 in /  0.0 mm
17:02 73.8 °F /  23.2 °C 60.4 °F /  15.8 °C 30.1 in /  1018.5 hPa West 8 mph /  12.9 km/h 8 mph /  12.9 km/h 63 % 0 in /  0.0 mm
17:12 74.5 °F /  23.6 °C 61.5 °F /  16.4 °C 30.1 in /  1018.8 hPa West 2 mph /  3.2 km/h 9 mph /  14.5 km/h 64 % 0 in /  0.0 mm
17:17 73.8 °F /  23.2 °C 61.7 °F /  16.5 °C 30.1 in /  1018.8 hPa NW 4 mph /  6.4 km/h 9 mph /  14.5 km/h 66 % 0 in /  0.0 mm
17:22 73 °F /  22.8 °C 61.9 °F /  16.6 °C 30.1 in /  1018.8 hPa WNW 3 mph /  4.8 km/h 8 mph /  12.9 km/h 68 % 0 in /  0.0 mm
17:32 72.7 °F /  22.6 °C 62.2 °F /  16.8 °C 30.1 in /  1018.8 hPa West 2 mph /  3.2 km/h 7 mph /  11.3 km/h 70 % 0 in /  0.0 mm
17:42 73.2 °F /  22.9 °C 62.4 °F /  16.9 °C 30.1 in /  1018.8 hPa NNW 4 mph /  6.4 km/h 7 mph /  11.3 km/h 69 % 0 in /  0.0 mm
17:52 73 °F /  22.8 °C 61.9 °F /  16.6 °C 30.1 in /  1018.8 hPa Calm   7 mph /  11.3 km/h 68 % 0 in /  0.0 mm
17:57 72.7 °F /  22.6 °C 61.5 °F /  16.4 °C 30.1 in /  1019.2 hPa WNW 1 mph /  1.6 km/h 6 mph /  9.7 km/h 68 % 0 in /  0.0 mm
18:02 72.3 °F /  22.4 °C 62.1 °F /  16.7 °C 30.1 in /  1019.2 hPa WNW 1 mph /  1.6 km/h 6 mph /  9.7 km/h 70 % 0 in /  0.0 mm
18:07 72.5 °F /  22.5 °C 62.2 °F /  16.8 °C 30.1 in /  1019.2 hPa West 1 mph /  1.6 km/h 6 mph /  9.7 km/h 70 % 0 in /  0.0 mm
18:12 72.3 °F /  22.4 °C 61.2 °F /  16.2 °C 30.1 in /  1019.2 hPa NNW 4 mph /  6.4 km/h 6 mph /  9.7 km/h 68 % 0 in /  0.0 mm
18:17 72.3 °F /  22.4 °C 62.1 °F /  16.7 °C 30.1 in /  1019.2 hPa WNW 7 mph /  11.3 km/h 7 mph /  11.3 km/h 70 % 0 in /  0.0 mm
18:22 72.3 °F /  22.4 °C 61.5 °F /  16.4 °C 30.1 in /  1019.2 hPa West 4 mph /  6.4 km/h 7 mph /  11.3 km/h 69 % 0 in /  0.0 mm
18:32 73.2 °F /  22.9 °C 62.1 °F /  16.7 °C 30.1 in /  1019.2 hPa NW 4 mph /  6.4 km/h 9 mph /  14.5 km/h 68 % 0 in /  0.0 mm
18:37 73.6 °F /  23.1 °C 61.9 °F /  16.6 °C 30.1 in /  1019.2 hPa SW 2 mph /  3.2 km/h 8 mph /  12.9 km/h 67 % 0 in /  0.0 mm
18:42 73.8 °F /  23.2 °C 62.1 °F /  16.7 °C 30.1 in /  1019.2 hPa NW 2 mph /  3.2 km/h 8 mph /  12.9 km/h 67 % 0 in /  0.0 mm
18:52 73.6 °F /  23.1 °C 61.5 °F /  16.4 °C 30.1 in /  1019.2 hPa NW 6 mph /  9.7 km/h 8 mph /  12.9 km/h 66 % 0 in /  0.0 mm
18:57 73.2 °F /  22.9 °C 60.3 °F /  15.7 °C 30.1 in /  1019.2 hPa NNW 10 mph /  16.1 km/h 10 mph /  16.1 km/h 64 % 0 in /  0.0 mm
19:02 73 °F /  22.8 °C 60.6 °F /  15.9 °C 30.1 in /  1019.2 hPa North 4 mph /  6.4 km/h 10 mph /  16.1 km/h 65 % 0 in /  0.0 mm
19:12 72.9 °F /  22.7 °C 60.8 °F /  16.0 °C 30.1 in /  1019.2 hPa WNW 4 mph /  6.4 km/h 11 mph /  17.7 km/h 66 % 0 in /  0.0 mm
19:17 72.5 °F /  22.5 °C 61 °F /  16.1 °C 30.1 in /  1019.2 hPa NNW 5 mph /  8.0 km/h 11 mph /  17.7 km/h 67 % 0 in /  0.0 mm
19:22 72.1 °F /  22.3 °C 61 °F /  16.1 °C 30.1 in /  1019.2 hPa North 4 mph /  6.4 km/h 10 mph /  16.1 km/h 68 % 0 in /  0.0 mm
19:32 71.2 °F /  21.8 °C 60.1 °F /  15.6 °C 30.1 in /  1019.2 hPa NNW 2 mph /  3.2 km/h 9 mph /  14.5 km/h 68 % 0 in /  0.0 mm
19:42 70.5 °F /  21.4 °C 60.3 °F /  15.7 °C 30.1 in /  1019.5 hPa NW 2 mph /  3.2 km/h 10 mph /  16.1 km/h 70 % 0 in /  0.0 mm
19:47 70.3 °F /  21.3 °C 60.4 °F /  15.8 °C 30.1 in /  1019.5 hPa NNW 2 mph /  3.2 km/h 9 mph /  14.5 km/h 71 % 0 in /  0.0 mm
19:52 70.3 °F /  21.3 °C 60.8 °F /  16.0 °C 30.1 in /  1019.5 hPa North 3 mph /  4.8 km/h 9 mph /  14.5 km/h 72 % 0 in /  0.0 mm
20:02 70.3 °F /  21.3 °C 61.7 °F /  16.5 °C 30.1 in /  1019.5 hPa North 2 mph /  3.2 km/h 7 mph /  11.3 km/h 74 % 0 in /  0.0 mm
20:12 70.2 °F /  21.2 °C 61.2 °F /  16.2 °C 30.1 in /  1019.5 hPa NW 3 mph /  4.8 km/h 6 mph /  9.7 km/h 73 % 0 in /  0.0 mm
20:17 70 °F /  21.1 °C 61.3 °F /  16.3 °C 30.1 in /  1019.9 hPa NNE 1 mph /  1.6 km/h 5 mph /  8.0 km/h 74 % 0 in /  0.0 mm
20:22 69.8 °F /  21.0 °C 61.5 °F /  16.4 °C 30.1 in /  1019.9 hPa NNW 1 mph /  1.6 km/h 5 mph /  8.0 km/h 75 % 0 in /  0.0 mm
20:27 69.8 °F /  21.0 °C 61.5 °F /  16.4 °C 30.1 in /  1019.9 hPa North 2 mph /  3.2 km/h 5 mph /  8.0 km/h 75 % 0 in /  0.0 mm
20:42 69.6 °F /  20.9 °C 61.3 °F /  16.3 °C 30.1 in /  1019.9 hPa North 1 mph /  1.6 km/h 4 mph /  6.4 km/h 75 % 0 in /  0.0 mm
20:47 69.4 °F /  20.8 °C 61.2 °F /  16.2 °C 30.1 in /  1019.9 hPa Calm   4 mph /  6.4 km/h 75 % 0 in /  0.0 mm
20:52 69.3 °F /  20.7 °C 61 °F /  16.1 °C 30.1 in /  1019.9 hPa NW 2 mph /  3.2 km/h 4 mph /  6.4 km/h 75 % 0 in /  0.0 mm
20:57 69.3 °F /  20.7 °C 61.3 °F /  16.3 °C 30.1 in /  1019.9 hPa West 1 mph /  1.6 km/h 3 mph /  4.8 km/h 76 % 0 in /  0.0 mm
21:02 69.1 °F /  20.6 °C 61.2 °F /  16.2 °C 30.1 in /  1019.9 hPa Calm   3 mph /  4.8 km/h 76 % 0 in /  0.0 mm
21:12 68.4 °F /  20.2 °C 61.2 °F /  16.2 °C 30.1 in /  1020.2 hPa Calm   3 mph /  4.8 km/h 78 % 0 in /  0.0 mm
21:17 68 °F /  20.0 °C 60.8 °F /  16.0 °C 30.1 in /  1020.2 hPa Calm   3 mph /  4.8 km/h 78 % 0 in /  0.0 mm
21:22 67.6 °F /  19.8 °C 60.6 °F /  15.9 °C 30.1 in /  1020.2 hPa Calm   2 mph /  3.2 km/h 78 % 0 in /  0.0 mm
21:27 67.5 °F /  19.7 °C 60.8 °F /  16.0 °C 30.1 in /  1020.2 hPa Calm   2 mph /  3.2 km/h 79 % 0 in /  0.0 mm
21:32 67.3 °F /  19.6 °C 60.6 °F /  15.9 °C 30.1 in /  1020.5 hPa Calm   4 mph /  6.4 km/h 79 % 0 in /  0.0 mm
21:37 66.9 °F /  19.4 °C 60.6 °F /  15.9 °C 30.1 in /  1020.5 hPa Calm   4 mph /  6.4 km/h 80 % 0 in /  0.0 mm
21:47 66.6 °F /  19.2 °C 60.6 °F /  15.9 °C 30.1 in /  1020.5 hPa NNE 1 mph /  1.6 km/h 1 mph /  1.6 km/h 81 % 0 in /  0.0 mm
21:52 66 °F /  18.9 °C 60.4 °F /  15.8 °C 30.1 in /  1020.5 hPa Calm   1 mph /  1.6 km/h 82 % 0 in /  0.0 mm
21:57 66 °F /  18.9 °C 60.4 °F /  15.8 °C 30.2 in /  1020.9 hPa Calm   2 mph /  3.2 km/h 82 % 0 in /  0.0 mm
22:02 65.8 °F /  18.8 °C 60.3 °F /  15.7 °C 30.2 in /  1020.9 hPa Calm   2 mph /  3.2 km/h 82 % 0 in /  0.0 mm
22:12 65.5 °F /  18.6 °C 60.3 °F /  15.7 °C 30.2 in /  1020.9 hPa Calm   2 mph /  3.2 km/h 83 % 0 in /  0.0 mm
22:17 65.5 °F /  18.6 °C 60.3 °F /  15.7 °C 30.2 in /  1021.2 hPa Calm   1 mph /  1.6 km/h 83 % 0 in /  0.0 mm
22:22 65.1 °F /  18.4 °C 60.1 °F /  15.6 °C 30.2 in /  1021.2 hPa Calm     84 % 0 in /  0.0 mm
22:32 64.9 °F /  18.3 °C 59.9 °F /  15.5 °C 30.2 in /  1021.2 hPa NW 1 mph /  1.6 km/h 4 mph /  6.4 km/h 84 % 0 in /  0.0 mm
22:42 64.6 °F /  18.1 °C 59.7 °F /  15.4 °C 30.2 in /  1021.6 hPa Calm   4 mph /  6.4 km/h 84 % 0 in /  0.0 mm
22:47 64.4 °F /  18.0 °C 59.5 °F /  15.3 °C 30.2 in /  1021.6 hPa NNW 1 mph /  1.6 km/h 4 mph /  6.4 km/h 84 % 0 in /  0.0 mm
22:52 64.2 °F /  17.9 °C 59.4 °F /  15.2 °C 30.2 in /  1021.6 hPa WNW 1 mph /  1.6 km/h 4 mph /  6.4 km/h 84 % 0 in /  0.0 mm
22:57 64.2 °F /  17.9 °C 59 °F /  15.0 °C 30.2 in /  1021.6 hPa NNW 1 mph /  1.6 km/h 3 mph /  4.8 km/h 83 % 0 in /  0.0 mm
23:02 64.2 °F /  17.9 °C 59 °F /  15.0 °C 30.2 in /  1021.6 hPa NE 4 mph /  6.4 km/h 4 mph /  6.4 km/h 83 % 0 in /  0.0 mm
23:12 64 °F /  17.8 °C 58.8 °F /  14.9 °C 30.2 in /  1021.6 hPa Calm   6 mph /  9.7 km/h 83 % 0 in /  0.0 mm
23:17 63.9 °F /  17.7 °C 58.6 °F /  14.8 °C 30.2 in /  1021.6 hPa Calm   6 mph /  9.7 km/h 83 % 0 in /  0.0 mm
23:22 63.9 °F /  17.7 °C 58.6 °F /  14.8 °C 30.2 in /  1021.6 hPa NNW 1 mph /  1.6 km/h 6 mph /  9.7 km/h 83 % 0 in /  0.0 mm
23:32 63.7 °F /  17.6 °C 58.5 °F /  14.7 °C 30.2 in /  1021.6 hPa North 1 mph /  1.6 km/h 6 mph /  9.7 km/h 83 % 0 in /  0.0 mm
23:42 63.9 °F /  17.7 °C 58.3 °F /  14.6 °C 30.2 in /  1021.9 hPa NNW 2 mph /  3.2 km/h 5 mph /  8.0 km/h 82 % 0 in /  0.0 mm
23:47 63.7 °F /  17.6 °C 58.1 °F /  14.5 °C 30.2 in /  1021.9 hPa NNW 2 mph /  3.2 km/h 3 mph /  4.8 km/h 82 % 0 in /  0.0 mm
23:52 63.5 °F /  17.5 °C 57.9 °F /  14.4 °C 30.2 in /  1021.6 hPa NNW 1 mph /  1.6 km/h 3 mph /  4.8 km/h 82 % 0 in /  0.0 mm
23:57 63.3 °F /  17.4 °C 57.4 °F /  14.1 °C 30.2 in /  1021.6 hPa NW 1 mph /  1.6 km/h 3 mph /  4.8 km/h 81 % 0 in /  0.0 mm
Meteo18
Compliments of Weather Underground - 4 mb

Script developed by  Jim McMurry - jmcmurry@mwt.net Adapted for the template by  Wim van der Kuil - Leuven-Template.eu

You find our weather info also at:

European Weather Network

Weather Underground

Equipment we use:

Weather-station
Davis Vue

Weather-program
Meteohub

Weather-server
Raspberry PI 2 B+

Provider
1 and 1

Davis Vue

Meteohub

Raspberry PI 2 B+

1 and 1